createdAt,value
2023-03-12T00:02:23.099Z,4.82
2023-03-12T00:04:55.530Z,8.50
2023-03-12T00:07:28.033Z,5.25
2023-03-12T00:10:00.294Z,4.95
2023-03-12T00:12:33.419Z,4.78
2023-03-12T00:15:08.293Z,7.03
2023-03-12T00:17:40.599Z,4.40
2023-03-12T00:20:13.483Z,6.32
2023-03-12T00:22:45.804Z,9.52
2023-03-12T00:25:18.384Z,6.80
2023-03-12T00:27:50.694Z,5.65
2023-03-12T00:30:23.642Z,11.02
2023-03-12T00:32:55.986Z,4.57
2023-03-12T00:35:28.310Z,4.10
2023-03-12T00:38:00.945Z,8.93
2023-03-12T00:40:33.228Z,2.78
2023-03-12T00:43:05.516Z,4.43
2023-03-12T00:45:38.468Z,7.10
2023-03-12T00:48:10.770Z,8.73
2023-03-12T00:50:43.055Z,6.53
2023-03-12T00:53:15.344Z,11.05
2023-03-12T00:55:47.699Z,6.40
2023-03-12T00:58:20.170Z,27.90
2023-03-12T01:00:53.613Z,12.05
2023-03-12T01:03:26.114Z,4.78
2023-03-12T01:05:58.406Z,4.72
2023-03-12T01:08:31.122Z,3.80
2023-03-12T01:11:03.864Z,3.33
2023-03-12T01:13:36.189Z,7.00
2023-03-12T01:16:09.434Z,5.85
2023-03-12T01:18:41.835Z,4.63
2023-03-12T01:21:14.127Z,7.25
2023-03-12T01:23:46.496Z,5.53
2023-03-12T01:26:18.826Z,5.75
2023-03-12T01:28:51.102Z,3.88
2023-03-12T01:31:24.335Z,5.65
2023-03-12T01:33:56.658Z,4.70
2023-03-12T01:36:30.832Z,14.27
2023-03-12T01:39:03.969Z,6.53
2023-03-12T01:41:36.920Z,10.02
2023-03-12T01:44:14.484Z,13.18
2023-03-12T01:46:48.026Z,6.47
2023-03-12T01:49:28.355Z,7.22
2023-03-12T01:52:05.336Z,10.40
2023-03-12T01:54:55.015Z,5.70
2023-03-12T01:57:33.526Z,5.90
2023-03-12T02:00:11.189Z,8.27
2023-03-12T02:02:50.695Z,9.18
2023-03-12T02:05:33.131Z,3.60
2023-03-12T02:08:05.620Z,6.80
2023-03-12T02:10:38.077Z,4.57
2023-03-12T02:13:11.288Z,16.83
2023-03-12T02:15:49.359Z,3.75
2023-03-12T02:18:22.325Z,3.63
2023-03-12T02:21:02.409Z,3.38
2023-03-12T02:23:42.506Z,3.35
2023-03-12T02:26:17.126Z,4.30
2023-03-12T02:28:50.296Z,3.33
2023-03-12T02:31:25.927Z,5.18
2023-03-12T02:33:59.850Z,3.50
2023-03-12T02:36:32.174Z,3.25
2023-03-12T02:39:05.872Z,3.30
2023-03-12T02:41:41.272Z,4.72
2023-03-12T02:44:18.050Z,2.28
2023-03-12T02:46:54.173Z,4.47
2023-03-12T02:49:28.401Z,3.28
2023-03-12T02:52:03.108Z,4.38
2023-03-12T02:54:35.556Z,4.75
2023-03-12T02:57:08.562Z,9.27
2023-03-12T02:59:40.975Z,3.70
2023-03-12T03:02:14.233Z,3.10
2023-03-12T03:04:46.838Z,7.85
2023-03-12T03:07:19.138Z,5.93
2023-03-12T03:09:51.412Z,3.70
2023-03-12T03:12:24.349Z,7.63
2023-03-12T03:14:57.064Z,9.20
2023-03-12T03:17:29.665Z,6.07
2023-03-12T03:20:03.737Z,11.15
2023-03-12T03:22:36.025Z,4.82
2023-03-12T03:25:09.983Z,4.20
2023-03-12T03:27:42.961Z,3.40
2023-03-12T03:30:16.416Z,2.75
2023-03-12T03:32:51.651Z,2.05
2023-03-12T03:35:24.483Z,2.53
2023-03-12T03:37:57.804Z,2.90
2023-03-12T03:40:31.127Z,2.67
2023-03-12T03:43:04.291Z,2.83
2023-03-12T03:45:36.938Z,2.30
2023-03-12T03:48:09.373Z,4.03
2023-03-12T03:50:42.050Z,4.85
2023-03-12T03:53:14.433Z,2.25
2023-03-12T03:55:48.024Z,3.40
2023-03-12T03:58:21.297Z,1.73
2023-03-12T04:00:54.130Z,3.65
2023-03-12T04:03:26.521Z,2.33
2023-03-12T04:06:00.984Z,3.97
2023-03-12T04:08:36.453Z,1.45
2023-03-12T04:11:14.031Z,2.80
2023-03-12T04:13:47.751Z,5.15
2023-03-12T04:16:22.596Z,1.77
2023-03-12T04:18:58.213Z,1.65
2023-03-12T04:21:31.524Z,3.13
2023-03-12T04:24:04.557Z,4.00
2023-03-12T04:26:39.488Z,3.22
2023-03-12T04:29:13.654Z,2.70
2023-03-12T04:31:47.037Z,1.85
2023-03-12T04:34:19.769Z,2.95
2023-03-12T04:36:54.857Z,2.58
2023-03-12T04:39:27.877Z,1.25
2023-03-12T04:42:00.941Z,4.60
2023-03-12T04:44:34.078Z,4.13
2023-03-12T04:47:06.637Z,1.48
2023-03-12T04:49:39.363Z,4.18
2023-03-12T04:52:12.994Z,3.83
2023-03-12T04:54:47.912Z,1.58
2023-03-12T04:57:21.412Z,3.15
2023-03-12T04:59:54.611Z,4.32
2023-03-12T05:02:26.998Z,3.33
2023-03-12T05:04:59.453Z,4.55
2023-03-12T05:07:32.057Z,3.80
2023-03-12T05:10:05.650Z,2.83
2023-03-12T05:12:38.083Z,4.95
2023-03-12T05:15:11.519Z,1.73
2023-03-12T05:17:44.399Z,2.55
2023-03-12T05:20:18.321Z,9.25
2023-03-12T05:22:52.765Z,8.93
2023-03-12T05:25:25.150Z,1.95
2023-03-12T05:27:57.543Z,0.90
2023-03-12T05:30:31.431Z,3.00
2023-03-12T05:33:03.916Z,4.03
2023-03-12T05:35:37.203Z,6.80
2023-03-12T05:38:09.617Z,6.57
2023-03-12T05:40:42.269Z,13.57
2023-03-12T05:43:14.635Z,4.13
2023-03-12T05:45:47.933Z,3.65
2023-03-12T05:48:20.840Z,8.82
2023-03-12T05:50:54.750Z,2.28
2023-03-12T05:53:27.271Z,1.15
2023-03-12T05:56:03.245Z,5.80
2023-03-12T05:58:37.358Z,3.05
2023-03-12T06:01:15.430Z,2.90
2023-03-12T06:03:48.334Z,4.15
2023-03-12T06:06:21.117Z,2.50
2023-03-12T06:08:53.504Z,3.38
2023-03-12T06:11:25.884Z,3.55
2023-03-12T06:13:58.229Z,6.55
2023-03-12T06:16:31.572Z,5.55
2023-03-12T06:19:04.505Z,4.00
2023-03-12T06:21:37.740Z,1.35
2023-03-12T06:24:12.321Z,4.53
2023-03-12T06:27:02.979Z,0.80
2023-03-12T06:29:35.298Z,2.63
2023-03-12T06:32:08.690Z,4.43
2023-03-12T06:34:41.033Z,1.42
2023-03-12T06:37:13.294Z,1.48
2023-03-12T06:39:45.581Z,2.47
2023-03-12T06:42:19.004Z,4.35
2023-03-12T06:44:51.535Z,2.90
2023-03-12T06:47:24.517Z,4.45
2023-03-12T06:49:56.786Z,4.43
2023-03-12T06:52:29.080Z,1.73
2023-03-12T06:55:01.358Z,5.10
2023-03-12T06:57:33.619Z,2.17
2023-03-12T07:00:07.729Z,3.60
2023-03-12T07:02:40.632Z,1.83
2023-03-12T07:05:13.048Z,5.45
2023-03-12T07:07:45.316Z,3.95
2023-03-12T07:10:17.684Z,3.15
2023-03-12T07:12:50.307Z,4.78
2023-03-12T07:15:22.626Z,2.10
2023-03-12T07:17:58.958Z,1.40
2023-03-12T07:20:31.501Z,4.05
2023-03-12T07:23:04.172Z,7.40
2023-03-12T07:25:37.294Z,2.70
2023-03-12T07:28:10.134Z,1.83
2023-03-12T07:30:42.393Z,1.17
2023-03-12T07:33:17.183Z,5.13
2023-03-12T07:35:51.682Z,4.22
2023-03-12T07:38:24.486Z,2.50
2023-03-12T07:40:58.189Z,2.78
2023-03-12T07:43:30.543Z,3.28
2023-03-12T07:46:02.936Z,1.30
2023-03-12T07:48:35.882Z,3.42
2023-03-12T07:51:08.172Z,3.90
2023-03-12T07:53:40.514Z,2.72
2023-03-12T07:56:12.933Z,7.38
2023-03-12T07:58:45.465Z,4.15
2023-03-12T08:01:17.885Z,1.58
2023-03-12T08:03:51.214Z,6.97
2023-03-12T08:06:23.860Z,4.25
2023-03-12T08:08:56.170Z,2.75
2023-03-12T08:11:29.528Z,2.28
2023-03-12T08:14:01.921Z,2.42
2023-03-12T08:16:34.353Z,5.40
2023-03-12T08:19:07.284Z,4.10
2023-03-12T08:21:39.581Z,1.58
2023-03-12T08:24:11.853Z,2.00
2023-03-12T08:26:44.159Z,4.40
2023-03-12T08:29:16.528Z,2.47
2023-03-12T08:32:03.700Z,3.50
2023-03-12T08:34:37.990Z,1.65
2023-03-12T08:37:10.319Z,3.40
2023-03-12T08:39:42.557Z,0.73
2023-03-12T08:42:14.931Z,2.25
2023-03-12T08:44:47.195Z,1.23
2023-03-12T08:47:19.562Z,2.17
2023-03-12T08:49:52.494Z,2.63
2023-03-12T08:52:24.830Z,1.00
2023-03-12T08:54:57.092Z,0.95
2023-03-12T08:57:29.435Z,3.17
2023-03-12T09:00:04.680Z,2.83
2023-03-12T09:02:37.181Z,4.78
2023-03-12T09:05:11.014Z,3.63
2023-03-12T09:07:43.357Z,2.28
2023-03-12T09:10:16.221Z,2.30
2023-03-12T09:12:48.536Z,3.50
2023-03-12T09:15:20.947Z,4.15
2023-03-12T09:17:53.410Z,3.08
2023-03-12T09:20:26.449Z,5.15
2023-03-12T09:22:58.779Z,1.83
2023-03-12T09:25:31.058Z,3.50
2023-03-12T09:28:03.383Z,3.28
2023-03-12T09:30:35.763Z,1.55
2023-03-12T09:33:08.355Z,2.33
2023-03-12T09:35:41.420Z,2.20
2023-03-12T09:38:14.863Z,3.15
2023-03-12T09:40:47.475Z,4.65
2023-03-12T09:43:25.942Z,4.30
2023-03-12T09:45:59.530Z,1.48
2023-03-12T09:48:34.329Z,5.22
2023-03-12T09:51:13.997Z,7.18
2023-03-12T09:56:21.635Z,1.63
2023-03-12T09:58:55.434Z,2.55
2023-03-12T10:01:38.741Z,2.63
2023-03-12T10:04:58.488Z,4.70
2023-03-12T10:07:37.021Z,2.58
2023-03-12T10:10:37.947Z,1.70
2023-03-12T10:13:32.855Z,0.98
2023-03-12T10:16:16.217Z,0.95
2023-03-12T10:19:05.708Z,1.50
2023-03-12T10:21:48.874Z,3.10
2023-03-12T10:24:33.343Z,3.42
2023-03-12T10:27:11.825Z,3.30
2023-03-12T10:29:48.263Z,2.28
2023-03-12T10:32:26.176Z,3.42
2023-03-12T10:35:02.754Z,1.20
2023-03-12T10:37:41.986Z,1.85
2023-03-12T10:40:17.332Z,4.43
2023-03-12T10:42:49.942Z,1.35
2023-03-12T10:45:32.266Z,2.60
2023-03-12T10:48:06.549Z,1.70
2023-03-12T10:50:40.824Z,2.55
2023-03-12T10:53:21.779Z,2.22
2023-03-12T10:56:04.777Z,1.58
2023-03-12T10:58:38.948Z,2.38
2023-03-12T11:01:22.189Z,3.05
2023-03-12T11:04:09.660Z,6.25
2023-03-12T11:06:41.989Z,2.35
2023-03-12T11:09:17.759Z,2.55
2023-03-12T11:11:51.181Z,4.28
2023-03-12T11:14:25.658Z,4.22
2023-03-12T11:17:23.033Z,2.75
2023-03-12T11:19:55.530Z,3.97
2023-03-12T11:22:30.680Z,5.25
2023-03-12T11:25:06.449Z,3.70
2023-03-12T11:27:43.756Z,1.98
2023-03-12T11:30:21.931Z,2.25
2023-03-12T11:32:57.475Z,2.03
2023-03-12T11:35:39.465Z,1.95
2023-03-12T11:38:18.035Z,1.67
2023-03-12T11:41:07.083Z,3.08
2023-03-12T11:43:53.606Z,1.40
2023-03-12T11:46:35.552Z,1.73
2023-03-12T11:49:25.277Z,3.15
2023-03-12T11:55:08.369Z,2.15
2023-03-12T11:57:52.011Z,1.83
2023-03-12T12:00:30.088Z,1.00
2023-03-12T12:03:34.027Z,2.78
2023-03-12T12:06:14.471Z,3.50
2023-03-12T12:08:58.704Z,2.35
2023-03-12T12:11:44.489Z,2.55
2023-03-12T12:14:30.528Z,2.97
2023-03-12T12:17:14.392Z,1.55
2023-03-12T12:20:01.492Z,1.52
2023-03-12T12:22:45.956Z,1.63
2023-03-12T12:25:28.338Z,3.53
2023-03-12T12:28:17.681Z,1.80
2023-03-12T12:31:01.421Z,7.88
2023-03-12T12:33:49.974Z,2.03
2023-03-12T12:36:27.128Z,4.47
2023-03-12T12:39:05.433Z,5.22
2023-03-12T12:41:42.570Z,1.58
2023-03-12T12:44:18.577Z,1.42
2023-03-12T12:46:56.250Z,2.60
2023-03-12T12:49:35.332Z,3.50
2023-03-12T12:52:11.332Z,2.65
2023-03-12T12:54:54.235Z,2.33
2023-03-12T12:57:32.663Z,1.30
2023-03-12T13:00:31.188Z,1.92
2023-03-12T13:03:04.580Z,1.98
2023-03-12T13:05:45.679Z,2.38
2023-03-12T13:08:36.209Z,2.78
2023-03-12T13:11:24.565Z,2.55
2023-03-12T13:14:30.305Z,3.63
2023-03-12T13:17:08.829Z,8.18
2023-03-12T13:19:45.026Z,17.05
2023-03-12T13:22:30.788Z,8.45
2023-03-12T13:25:21.625Z,3.20
2023-03-12T13:27:59.396Z,2.63
2023-03-12T13:30:51.068Z,2.72
2023-03-12T13:33:39.178Z,1.30
2023-03-12T13:36:23.295Z,3.13
2023-03-12T13:38:58.440Z,2.25
2023-03-12T13:41:34.471Z,2.47
2023-03-12T13:44:36.943Z,2.35
2023-03-12T13:47:22.593Z,1.67
2023-03-12T13:49:57.245Z,3.35
2023-03-12T13:52:32.265Z,5.72
2023-03-12T13:55:16.993Z,3.83
2023-03-12T13:57:50.934Z,1.45
2023-03-12T14:00:28.521Z,2.13
2023-03-12T14:03:10.092Z,2.38
2023-03-12T14:05:50.496Z,3.80
2023-03-12T14:08:49.432Z,2.22
2023-03-12T14:11:42.820Z,1.27
2023-03-12T14:14:36.179Z,3.15
2023-03-12T14:17:16.786Z,2.13
2023-03-12T14:19:56.957Z,2.10
2023-03-12T14:22:33.571Z,2.05
2023-03-12T14:25:14.246Z,7.78
2023-03-12T14:27:47.415Z,2.40
2023-03-12T14:30:24.438Z,3.72
2023-03-12T14:33:01.235Z,1.70
2023-03-12T14:35:40.168Z,2.50
2023-03-12T14:38:17.221Z,2.85
2023-03-12T14:40:54.899Z,2.28
2023-03-12T14:43:28.914Z,2.95
2023-03-12T14:46:04.111Z,3.97
2023-03-12T14:48:37.398Z,2.28
2023-03-12T14:51:22.186Z,2.47
2023-03-12T14:54:01.457Z,2.40
2023-03-12T14:56:35.379Z,3.40
2023-03-12T14:59:22.462Z,2.17
2023-03-12T15:01:59.960Z,1.52
2023-03-12T15:04:34.625Z,6.45
2023-03-12T15:07:12.043Z,1.85
2023-03-12T15:09:49.129Z,1.10
2023-03-12T15:12:24.094Z,0.98
2023-03-12T15:15:03.635Z,3.22
2023-03-12T15:17:36.412Z,1.88
2023-03-12T15:20:15.953Z,4.03
2023-03-12T15:22:48.931Z,1.55
2023-03-12T15:25:23.269Z,1.90
2023-03-12T15:28:05.982Z,5.43
2023-03-12T15:30:41.011Z,2.88
2023-03-12T15:33:23.918Z,2.50
2023-03-12T15:36:02.417Z,2.45
2023-03-12T15:38:37.642Z,3.00
2023-03-12T15:41:19.993Z,2.35
2023-03-12T15:43:55.430Z,2.10
2023-03-12T15:46:28.509Z,2.35
2023-03-12T15:49:01.474Z,3.83
2023-03-12T15:51:36.518Z,1.85
2023-03-12T15:54:24.927Z,4.57
2023-03-12T15:57:22.276Z,3.30
2023-03-12T16:00:19.894Z,2.70
2023-03-12T16:02:54.853Z,6.15
2023-03-12T16:05:30.378Z,5.25
2023-03-12T16:08:15.397Z,1.20
2023-03-12T16:10:48.627Z,1.63
2023-03-12T16:13:23.195Z,2.30
2023-03-12T16:15:55.443Z,2.15
2023-03-12T16:18:27.871Z,1.77
2023-03-12T16:21:00.210Z,3.60
2023-03-12T16:23:33.704Z,3.03
2023-03-12T16:26:06.673Z,1.77
2023-03-12T16:28:39.161Z,2.38
2023-03-12T16:31:12.401Z,1.73
2023-03-12T16:33:44.846Z,6.15
2023-03-12T16:36:18.501Z,6.45
2023-03-12T16:38:51.506Z,6.65
2023-03-12T16:41:23.971Z,8.82
2023-03-12T16:43:56.698Z,6.95
2023-03-12T16:46:31.385Z,3.67
2023-03-12T16:49:04.174Z,2.03
2023-03-12T16:51:37.198Z,5.10
2023-03-12T16:54:11.980Z,2.67
2023-03-12T16:56:47.600Z,2.75
2023-03-12T16:59:24.590Z,3.40
2023-03-12T17:01:56.962Z,4.72
2023-03-12T17:04:29.408Z,2.70
2023-03-12T17:07:01.976Z,3.15
2023-03-12T17:09:35.115Z,5.78
2023-03-12T17:12:18.034Z,4.30
2023-03-12T17:14:51.110Z,3.47
2023-03-12T17:17:23.421Z,2.88
2023-03-12T17:19:55.761Z,4.13
2023-03-12T17:22:28.050Z,5.97
2023-03-12T17:25:01.153Z,15.65
2023-03-12T17:27:33.524Z,4.55
2023-03-12T17:30:06.811Z,3.92
2023-03-12T17:32:39.152Z,5.38
2023-03-12T17:35:11.775Z,2.15
2023-03-12T17:37:44.697Z,4.53
2023-03-12T17:40:17.881Z,3.83
2023-03-12T17:42:50.316Z,4.55
2023-03-12T17:45:23.186Z,2.33
2023-03-12T17:47:55.465Z,9.98
2023-03-12T17:50:27.768Z,4.45
2023-03-12T17:53:00.052Z,7.43
2023-03-12T17:55:34.793Z,4.50
2023-03-12T17:58:07.178Z,12.23
2023-03-12T18:00:39.492Z,10.40
2023-03-12T18:03:11.846Z,16.13
2023-03-12T18:05:44.278Z,6.43
2023-03-12T18:08:16.562Z,5.38
2023-03-12T18:10:49.678Z,6.85
2023-03-12T18:13:22.014Z,6.05
2023-03-12T18:15:56.175Z,4.47
2023-03-12T18:18:28.711Z,4.32
2023-03-12T18:21:01.370Z,18.15
2023-03-12T18:23:33.813Z,17.52
2023-03-12T18:26:06.773Z,4.65
2023-03-12T18:28:39.110Z,7.47
2023-03-12T18:31:11.549Z,7.30
2023-03-12T18:33:43.910Z,16.17
2023-03-12T18:36:16.237Z,11.57
2023-03-12T18:38:48.636Z,7.80
2023-03-12T18:41:21.875Z,10.27
2023-03-12T18:43:54.193Z,8.15
2023-03-12T18:46:26.788Z,4.95
2023-03-12T18:49:04.201Z,4.28
2023-03-12T18:51:36.565Z,5.63
2023-03-12T18:54:08.934Z,21.63
2023-03-12T18:56:41.888Z,5.78
2023-03-12T18:59:14.498Z,19.83
2023-03-12T19:01:47.069Z,29.60
2023-03-12T19:04:20.157Z,16.73
2023-03-12T19:06:52.786Z,11.35
2023-03-12T19:09:25.224Z,11.38
2023-03-12T19:11:58.743Z,7.30
2023-03-12T19:14:31.150Z,12.95
2023-03-12T19:17:04.077Z,7.75
2023-03-12T19:19:36.719Z,11.48
2023-03-12T19:22:09.300Z,8.82
2023-03-12T19:24:42.641Z,3.90
2023-03-12T19:27:15.671Z,23.75
2023-03-12T19:29:48.170Z,35.25
2023-03-12T19:32:21.951Z,20.63
2023-03-12T19:34:54.502Z,11.57
2023-03-12T19:37:26.834Z,8.40
2023-03-12T19:39:59.166Z,18.83
2023-03-12T19:42:32.546Z,20.13
2023-03-12T19:45:05.811Z,7.32
2023-03-12T19:47:38.126Z,4.88
2023-03-12T19:50:11.836Z,7.43
2023-03-12T19:52:44.183Z,4.20
2023-03-12T19:55:16.565Z,14.20
2023-03-12T19:57:49.466Z,5.97
2023-03-12T20:00:22.486Z,6.97
2023-03-12T20:02:54.928Z,4.85
2023-03-12T20:05:27.260Z,13.80
2023-03-12T20:07:59.562Z,13.32
2023-03-12T20:10:32.105Z,7.65
2023-03-12T20:13:05.002Z,7.13
2023-03-12T20:15:38.855Z,5.53
2023-03-12T20:18:11.194Z,4.93
2023-03-12T20:20:43.495Z,6.22
2023-03-12T20:23:15.883Z,3.45
2023-03-12T20:25:49.682Z,7.05
2023-03-12T20:28:22.626Z,5.88
2023-03-12T20:30:55.123Z,4.15
2023-03-12T20:33:27.390Z,7.47
2023-03-12T20:35:59.650Z,5.88
2023-03-12T20:38:32.002Z,5.45
2023-03-12T20:41:05.128Z,3.97
2023-03-12T20:43:38.147Z,4.20
2023-03-12T20:46:11.235Z,2.85
2023-03-12T20:48:43.552Z,4.72
2023-03-12T20:51:16.221Z,6.28
2023-03-12T20:53:48.524Z,4.25
2023-03-12T20:56:20.749Z,5.60
2023-03-12T20:58:53.656Z,5.65
2023-03-12T21:01:26.012Z,4.78
2023-03-12T21:03:58.454Z,6.75
2023-03-12T21:06:30.754Z,6.70
2023-03-12T21:09:03.432Z,5.55
2023-03-12T21:11:35.717Z,11.98
2023-03-12T21:14:08.632Z,8.25
2023-03-12T21:16:40.936Z,8.57
2023-03-12T21:19:13.189Z,13.05
2023-03-12T21:21:45.449Z,8.93
2023-03-12T21:24:17.712Z,7.45
2023-03-12T21:26:49.986Z,15.63
2023-03-12T21:29:22.892Z,24.60
2023-03-12T21:31:55.404Z,6.70
2023-03-12T21:34:29.330Z,8.05
2023-03-12T21:37:01.980Z,10.27
2023-03-12T21:39:34.530Z,12.07
2023-03-12T21:42:06.859Z,7.85
2023-03-12T21:44:39.783Z,22.70
2023-03-12T21:47:12.270Z,20.17
2023-03-12T21:49:45.570Z,32.60
2023-03-12T21:52:18.040Z,10.65
2023-03-12T21:54:50.460Z,5.80
2023-03-12T21:57:22.708Z,13.82
2023-03-12T21:59:55.683Z,4.80
2023-03-12T22:02:28.783Z,5.22
2023-03-12T22:05:01.821Z,12.65
2023-03-12T22:07:34.228Z,12.98
2023-03-12T22:10:10.955Z,8.60
2023-03-12T22:12:43.185Z,5.15
2023-03-12T22:15:16.158Z,6.25
2023-03-12T22:17:48.424Z,4.47
2023-03-12T22:20:20.841Z,5.35
2023-03-12T22:22:53.162Z,7.22
2023-03-12T22:25:25.463Z,6.13
2023-03-12T22:27:57.706Z,8.98
2023-03-12T22:30:30.649Z,4.25
2023-03-12T22:33:03.159Z,4.53
2023-03-12T22:35:42.547Z,5.72
2023-03-12T22:38:15.238Z,5.53
2023-03-12T22:40:47.590Z,17.00
2023-03-12T22:43:19.940Z,23.55
2023-03-12T22:45:53.376Z,19.92
2023-03-12T22:48:25.720Z,16.33
2023-03-12T22:50:58.156Z,14.75
2023-03-12T22:53:31.029Z,20.40
2023-03-12T22:56:05.184Z,21.98
2023-03-12T22:58:37.782Z,17.88
2023-03-12T23:01:12.662Z,14.18
2023-03-12T23:03:46.252Z,11.57
2023-03-12T23:06:20.297Z,9.30
2023-03-12T23:08:54.398Z,5.00
2023-03-12T23:11:28.925Z,8.02
2023-03-12T23:14:01.405Z,7.70
2023-03-12T23:16:34.439Z,6.38
2023-03-12T23:19:06.737Z,6.35
2023-03-12T23:21:39.038Z,8.80
2023-03-12T23:24:11.308Z,30.80
2023-03-12T23:26:44.192Z,23.40
2023-03-12T23:29:16.450Z,17.73
2023-03-12T23:31:49.493Z,16.40
2023-03-12T23:34:22.114Z,17.42
2023-03-12T23:36:54.474Z,16.67
2023-03-12T23:39:28.378Z,13.57
2023-03-12T23:42:00.850Z,15.55
2023-03-12T23:44:33.209Z,16.38
2023-03-12T23:47:06.682Z,15.70
2023-03-12T23:49:39.009Z,12.20
2023-03-12T23:52:11.238Z,20.05
2023-03-12T23:54:43.473Z,11.63
2023-03-12T23:57:15.789Z,15.93
2023-03-12T23:59:48.089Z,13.55
